Aviation Digital Data Service (ADDS)

Output produced by METARs form (1313 UTC 01 February 2015)
found at http://aviationweather.gov/adds/metars/
 
KINT 011125Z 0112/0212 VRB03KT P6SM BKN150 
     FM011800 21012G18KT P6SM SCT025 BKN100 
     FM020000 18008KT P6SM BKN035 
     TEMPO 0203/0206 6SM -RA BR OVC015 
     FM020600 18013G23KT 4SM -RA OVC007 
     FM020900 21015G25KT 1SM -RA BR OVC003